createdAt,value
2023-05-14T00:00:25.999Z,101390.75
2023-05-14T00:05:28.592Z,101397.16
2023-05-14T00:10:31.032Z,101401.34
2023-05-14T00:15:34.501Z,101398.31
2023-05-14T00:20:37.136Z,101404.19
2023-05-14T00:25:39.826Z,101410.16
2023-05-14T00:30:42.627Z,101412.09
2023-05-14T00:35:45.410Z,101414.97
2023-05-14T00:40:51.682Z,101417.03
2023-05-14T00:45:56.205Z,101411.59
2023-05-14T00:50:58.681Z,101409.63
2023-05-14T00:56:03.647Z,101415.78
2023-05-14T01:01:06.300Z,101411.50
2023-05-14T01:06:56.751Z,101405.19
2023-05-14T01:12:18.670Z,101404.03
2023-05-14T01:17:23.518Z,101401.44
2023-05-14T01:22:26.410Z,101401.00
2023-05-14T01:27:35.028Z,101405.03
2023-05-14T01:32:39.753Z,101395.84
2023-05-14T01:37:44.361Z,101396.25
2023-05-14T01:42:49.593Z,101397.31
2023-05-14T01:47:53.013Z,101403.69
2023-05-14T01:52:56.939Z,101404.41
2023-05-14T01:57:59.722Z,101407.81
2023-05-14T02:03:02.644Z,101407.03
2023-05-14T02:08:05.387Z,101405.38
2023-05-14T02:13:09.895Z,101408.00
2023-05-14T02:18:12.907Z,101409.13
2023-05-14T02:23:15.559Z,101408.34
2023-05-14T02:28:18.404Z,101401.41
2023-05-14T02:33:21.037Z,101411.78
2023-05-14T02:38:23.977Z,101407.66
2023-05-14T02:43:26.545Z,101416.34
2023-05-14T02:48:29.022Z,101410.63
2023-05-14T02:53:31.542Z,101416.44
2023-05-14T02:58:34.530Z,101425.72
2023-05-14T03:03:38.431Z,101425.34
2023-05-14T03:08:41.943Z,101423.41
2023-05-14T03:13:44.493Z,101421.91
2023-05-14T03:18:47.006Z,101425.84
2023-05-14T03:23:49.655Z,101429.41
2023-05-14T03:28:54.322Z,101428.06
2023-05-14T03:33:57.170Z,101435.41
2023-05-14T03:38:59.801Z,101439.28
2023-05-14T03:44:02.720Z,101429.91
2023-05-14T03:49:05.608Z,101441.47
2023-05-14T03:54:08.429Z,101442.34
2023-05-14T03:59:11.101Z,101441.84
2023-05-14T04:04:13.746Z,101449.41
2023-05-14T04:09:16.313Z,101445.13
2023-05-14T04:14:18.914Z,101444.44
2023-05-14T04:19:21.772Z,101451.50
2023-05-14T04:24:24.345Z,101440.72
2023-05-14T04:29:26.905Z,101433.91
2023-05-14T04:34:29.418Z,101438.06
2023-05-14T04:39:32.071Z,101436.41
2023-05-14T04:44:35.506Z,101442.41
2023-05-14T04:49:38.040Z,101443.59
2023-05-14T04:54:40.757Z,101443.22
2023-05-14T04:59:43.411Z,101441.69
2023-05-14T05:04:47.462Z,101441.72
2023-05-14T05:09:50.076Z,101438.59
2023-05-14T05:14:52.622Z,101441.53
2023-05-14T05:19:55.533Z,101436.34
2023-05-14T05:24:59.022Z,101443.88
2023-05-14T05:30:05.016Z,101444.78
2023-05-14T05:35:09.374Z,101442.66
2023-05-14T05:40:14.322Z,101442.16
2023-05-14T05:45:16.861Z,101435.13
2023-05-14T05:50:20.073Z,101437.78
2023-05-14T05:55:22.834Z,101432.22
2023-05-14T06:00:26.042Z,101428.53
2023-05-14T06:05:28.847Z,101420.88
2023-05-14T06:10:31.535Z,101415.91
2023-05-14T06:15:34.093Z,101419.81
2023-05-14T06:20:36.764Z,101421.75
2023-05-14T06:25:39.349Z,101415.56
2023-05-14T06:30:42.193Z,101413.97
2023-05-14T06:35:46.178Z,101412.19
2023-05-14T06:40:48.703Z,101416.84
2023-05-14T06:45:51.949Z,101406.00
2023-05-14T06:50:54.589Z,101413.38
2023-05-14T06:55:57.078Z,101415.81
2023-05-14T07:01:00.336Z,101403.97
2023-05-14T07:06:02.934Z,101403.41
2023-05-14T07:11:05.617Z,101400.81
2023-05-14T07:16:11.886Z,101406.28
2023-05-14T07:21:14.348Z,101407.34
2023-05-14T07:26:16.903Z,101391.94
2023-05-14T07:31:19.419Z,101396.69
2023-05-14T07:36:21.927Z,101389.78
2023-05-14T07:41:24.510Z,101392.47
2023-05-14T07:46:26.968Z,101391.31
2023-05-14T07:51:29.594Z,101388.56
2023-05-14T07:56:32.137Z,101386.13
2023-05-14T08:01:34.710Z,101393.38
2023-05-14T08:06:37.509Z,101391.06
2023-05-14T08:11:40.077Z,101377.91
2023-05-14T08:16:42.610Z,101372.31
2023-05-14T08:21:45.290Z,101364.16
2023-05-14T08:26:48.031Z,101365.56
2023-05-14T08:31:51.512Z,101358.63
2023-05-14T08:36:54.157Z,101362.72
2023-05-14T08:41:58.250Z,101350.50
2023-05-14T08:47:01.030Z,101349.59
2023-05-14T08:52:04.245Z,101342.59
2023-05-14T08:57:10.131Z,101345.16
2023-05-14T09:02:17.209Z,101330.75
2023-05-14T09:07:19.777Z,101327.59
2023-05-14T09:12:22.777Z,101323.94
2023-05-14T09:17:27.784Z,101307.25
2023-05-14T09:22:33.460Z,101312.41
2023-05-14T09:27:36.815Z,101299.19
2023-05-14T09:32:47.578Z,101293.22
2023-05-14T09:37:52.368Z,101298.00
2023-05-14T09:42:55.227Z,101290.72
2023-05-14T09:48:01.396Z,101289.28
2023-05-14T09:53:04.684Z,101275.06
2023-05-14T09:58:07.207Z,101271.97
2023-05-14T10:03:13.733Z,101265.41
2023-05-14T10:08:27.107Z,101256.72
2023-05-14T10:13:37.661Z,101240.94
2023-05-14T10:18:52.193Z,101247.31
2023-05-14T10:23:54.789Z,101248.53
2023-05-14T10:28:58.429Z,101239.47
2023-05-14T10:34:00.928Z,101243.75
2023-05-14T10:39:04.620Z,101228.69
2023-05-14T10:44:10.356Z,101225.09
2023-05-14T10:49:12.874Z,101217.81
2023-05-14T10:54:17.185Z,101214.16
2023-05-14T10:59:19.994Z,101217.16
2023-05-14T11:04:25.640Z,101218.03
2023-05-14T11:09:28.378Z,101204.28
2023-05-14T11:14:30.943Z,101194.09
2023-05-14T11:19:33.405Z,101195.91
2023-05-14T11:24:35.947Z,101196.34
2023-05-14T11:29:38.898Z,101180.63
2023-05-14T11:34:41.851Z,101180.44
2023-05-14T11:39:52.531Z,101179.28
2023-05-14T11:44:55.122Z,101171.75
2023-05-14T11:49:57.729Z,101171.31
2023-05-14T11:55:00.394Z,101175.44
2023-05-14T12:00:05.246Z,101169.31
2023-05-14T12:05:11.867Z,101172.94
2023-05-14T12:10:15.205Z,101163.88
2023-05-14T12:15:18.508Z,101158.34
2023-05-14T12:20:21.144Z,101151.69
2023-05-14T12:25:26.369Z,101144.50
2023-05-14T12:30:37.447Z,101154.06
2023-05-14T12:35:40.025Z,101147.13
2023-05-14T12:40:42.599Z,101147.47
2023-05-14T12:45:45.105Z,101146.94
2023-05-14T12:50:48.815Z,101139.66
2023-05-14T12:55:51.369Z,101157.72
2023-05-14T13:00:53.965Z,101153.50
2023-05-14T13:05:56.682Z,101155.88
2023-05-14T13:10:59.242Z,101153.69
2023-05-14T13:16:01.673Z,101157.69
2023-05-14T13:21:06.593Z,101163.22
2023-05-14T13:26:10.073Z,101159.56
2023-05-14T13:31:13.544Z,101156.84
2023-05-14T13:36:16.688Z,101165.88
2023-05-14T13:41:19.283Z,101163.44
2023-05-14T13:46:21.961Z,101157.72
2023-05-14T13:51:24.479Z,101158.09
2023-05-14T13:56:27.072Z,101163.47
2023-05-14T14:01:31.235Z,101163.16
2023-05-14T14:06:33.792Z,101163.22
2023-05-14T14:11:36.544Z,101169.31
2023-05-14T14:16:39.350Z,101169.75
2023-05-14T14:21:43.117Z,101169.78
2023-05-14T14:26:45.617Z,101168.56
2023-05-14T14:31:48.339Z,101166.50
2023-05-14T14:36:51.068Z,101168.53
2023-05-14T14:41:53.602Z,101172.19
2023-05-14T14:46:56.143Z,101171.38
2023-05-14T14:51:58.853Z,101177.84
2023-05-14T14:57:01.424Z,101173.34
2023-05-14T15:02:04.306Z,101171.25
2023-05-14T15:07:06.836Z,101170.78
2023-05-14T15:12:10.526Z,101171.97
2023-05-14T15:17:13.038Z,101171.09
2023-05-14T15:22:15.904Z,101163.34
2023-05-14T15:27:18.537Z,101167.38
2023-05-14T15:32:21.251Z,101158.75
2023-05-14T15:37:27.152Z,101168.91
2023-05-14T15:42:29.724Z,101159.91
2023-05-14T15:47:32.899Z,101149.94
2023-05-14T15:52:36.770Z,101159.50
2023-05-14T15:57:39.459Z,101165.44
2023-05-14T16:02:42.263Z,101160.69
2023-05-14T16:07:44.929Z,101164.59
2023-05-14T16:12:47.425Z,101168.44
2023-05-14T16:17:50.065Z,101176.00
2023-05-14T16:22:52.612Z,101164.75
2023-05-14T16:27:55.172Z,101165.22
2023-05-14T16:32:57.719Z,101166.06
2023-05-14T16:38:00.257Z,101166.16
2023-05-14T16:43:02.954Z,101170.75
2023-05-14T16:48:06.445Z,101172.09
2023-05-14T16:53:09.198Z,101177.47
2023-05-14T16:58:11.630Z,101188.78
2023-05-14T17:03:14.094Z,101196.03
2023-05-14T17:08:16.781Z,101206.41
2023-05-14T17:13:19.466Z,101209.84
2023-05-14T17:18:22.063Z,101207.66
2023-05-14T17:23:24.631Z,101212.22
2023-05-14T17:28:28.768Z,101225.63
2023-05-14T17:33:31.980Z,101223.84
2023-05-14T17:38:35.082Z,101227.63
2023-05-14T17:43:37.619Z,101233.09
2023-05-14T17:48:40.111Z,101237.84
2023-05-14T17:53:42.568Z,101234.03
2023-05-14T17:58:46.213Z,101239.97
2023-05-14T18:03:48.850Z,101240.94
2023-05-14T18:08:51.505Z,101236.03
2023-05-14T18:13:54.079Z,101225.34
2023-05-14T18:18:56.807Z,101235.47
2023-05-14T18:23:59.530Z,101237.13
2023-05-14T18:29:02.122Z,101241.34
2023-05-14T18:34:04.752Z,101238.31
2023-05-14T18:39:07.397Z,101236.59
2023-05-14T18:44:10.079Z,101237.66
2023-05-14T18:49:12.572Z,101236.47
2023-05-14T18:54:15.022Z,101236.06
2023-05-14T18:59:17.577Z,101234.66
2023-05-14T19:04:20.154Z,101235.19
2023-05-14T19:09:23.152Z,101243.47
2023-05-14T19:14:26.530Z,101250.72
2023-05-14T19:19:29.306Z,101246.84
2023-05-14T19:24:31.852Z,101244.03
2023-05-14T19:29:34.508Z,101238.63
2023-05-14T19:34:37.113Z,101238.56
2023-05-14T19:39:39.646Z,101229.94
2023-05-14T19:44:42.354Z,101229.75
2023-05-14T19:49:44.807Z,101224.34
2023-05-14T19:54:47.344Z,101229.16
2023-05-14T19:59:49.996Z,101232.25
2023-05-14T20:04:55.739Z,101228.81
2023-05-14T20:09:58.238Z,101227.88
2023-05-14T20:15:00.725Z,101228.97
2023-05-14T20:20:03.754Z,101222.34
2023-05-14T20:25:07.720Z,101220.47
2023-05-14T20:30:10.786Z,101214.19
2023-05-14T20:35:13.599Z,101205.34
2023-05-14T20:40:16.145Z,101205.44
2023-05-14T20:45:19.112Z,101206.34
2023-05-14T20:50:22.846Z,101196.94
2023-05-14T20:55:25.705Z,101202.72
2023-05-14T21:00:28.480Z,101209.25
2023-05-14T21:05:30.966Z,101227.41
2023-05-14T21:10:33.448Z,101237.47
2023-05-14T21:15:37.053Z,101224.59
2023-05-14T21:20:40.539Z,101217.31
2023-05-14T21:25:43.040Z,101217.38
2023-05-14T21:30:46.112Z,101213.06
2023-05-14T21:35:48.746Z,101221.56
2023-05-14T21:40:51.599Z,101210.00
2023-05-14T21:45:54.237Z,101210.13
2023-05-14T21:50:56.651Z,101217.06
2023-05-14T21:55:59.116Z,101213.06
2023-05-14T22:01:01.563Z,101222.00
2023-05-14T22:06:04.492Z,101209.53
2023-05-14T22:11:06.910Z,101213.09
2023-05-14T22:16:13.755Z,101200.41
2023-05-14T22:21:16.859Z,101200.25
2023-05-14T22:26:19.723Z,101211.19
2023-05-14T22:31:22.227Z,101201.19
2023-05-14T22:36:24.721Z,101192.81
2023-05-14T22:41:27.298Z,101189.75
2023-05-14T22:46:30.346Z,101184.13
2023-05-14T22:51:33.031Z,101190.03
2023-05-14T22:56:36.117Z,101198.94
2023-05-14T23:01:39.247Z,101187.31
2023-05-14T23:06:41.911Z,101196.75
2023-05-14T23:11:44.478Z,101194.84
2023-05-14T23:16:46.942Z,101194.94
2023-05-14T23:21:49.452Z,101184.28
2023-05-14T23:26:51.944Z,101184.81
2023-05-14T23:31:54.600Z,101194.31
2023-05-14T23:36:57.146Z,101195.72
2023-05-14T23:41:59.725Z,101189.25
2023-05-14T23:47:04.593Z,101196.06
2023-05-14T23:52:07.495Z,101190.66
2023-05-14T23:57:13.034Z,101193.22
